Time;durP1;ratioP1;P1;durP2;ratioP2;P2;SDS_P1;SDS_P2;PMS_P1;PMS_P2;Temp;Humidity;BMP_temperature;BMP_pressure;BME280_temperature;BME280_humidity;BME280_pressure;Samples;Min_cycle;Max_cycle;Signal;HPM_P1;HPM_P2
2022/05/09 00:08:50;;;;;;;5.23;2.97;;;;;;;12.46;48.82;100778.72;31181727;28;20057;-75
2022/05/09 00:23:52;;;;;;;3.30;2.07;;;;;;;12.22;50.20;100769.78;31180439;28;20499;-76
2022/05/09 00:38:54;;;;;;;4.60;2.60;;;;;;;12.14;49.92;100752.00;31228025;28;20053;-77
2022/05/09 00:54:01;;;;;;;6.60;2.43;;;;;;;12.06;51.38;100745.13;31210073;28;20052;-76
2022/05/09 01:09:05;;;;;;;4.37;2.73;;;;;;;11.79;53.46;100740.50;31198988;28;20080;-77
2022/05/09 01:24:21;;;;;;;7.13;3.03;;;;;;;11.59;57.72;100731.41;31225198;28;20064;-77
2022/05/09 01:39:24;;;;;;;7.60;3.20;;;;;;;11.38;56.41;100718.09;31179237;28;20108;-76
2022/05/09 01:54:26;;;;;;;16.80;8.00;;;;;;;11.25;57.73;100715.94;31207050;28;20388;-77
2022/05/09 02:09:28;;;;;;;10.20;4.00;;;;;;;11.32;57.16;100712.38;31236845;28;20109;-76
2022/05/09 02:24:30;;;;;;;4.77;2.77;;;;;;;11.41;55.31;100717.28;31227535;28;20060;-77
2022/05/09 02:39:32;;;;;;;6.73;2.70;;;;;;;11.89;52.33;100706.91;31196431;28;20056;-76
2022/05/09 02:54:34;;;;;;;3.97;1.83;;;;;;;12.42;50.28;100724.31;31234947;28;20045;-77
2022/05/09 03:09:36;;;;;;;6.43;2.37;;;;;;;12.83;49.14;100704.88;31217001;28;20550;-75
2022/05/09 03:24:38;;;;;;;3.47;1.87;;;;;;;13.42;46.92;100711.53;31193151;28;20067;-77
2022/05/09 03:39:40;;;;;;;4.07;2.00;;;;;;;13.91;45.50;100704.94;31218124;28;20064;-76
2022/05/09 03:54:42;;;;;;;5.57;2.00;;;;;;;14.38;44.48;100720.97;31210742;28;20144;-77
2022/05/09 04:09:44;;;;;;;6.13;2.23;;;;;;;14.78;44.04;100720.72;31216449;28;20455;-77
2022/05/09 04:24:46;;;;;;;4.73;1.97;;;;;;;15.19;43.70;100719.94;31216403;28;20049;-77
2022/05/09 04:39:48;;;;;;;4.13;2.23;;;;;;;15.71;43.15;100707.88;31219513;28;20591;-76
2022/05/09 04:54:50;;;;;;;8.60;1.70;;;;;;;16.41;42.68;100707.53;31219437;28;20410;-76
2022/05/09 05:09:52;;;;;;;3.35;1.38;;;;;;;17.07;41.84;100699.34;31206682;28;20060;-77
2022/05/09 05:24:54;;;;;;;3.83;1.88;;;;;;;17.77;41.16;100698.63;31161653;28;20057;-78
2022/05/09 05:39:57;;;;;;;5.00;1.65;;;;;;;18.35;40.13;100690.38;31207832;28;20049;-78
2022/05/09 06:42:54;;;;;;;4.53;1.80;;;;;;;22.05;34.48;100669.91;31382228;28;20131;-73
2022/05/09 06:57:56;;;;;;;6.18;2.00;;;;;;;22.68;33.49;100655.47;31355117;28;20049;-72
2022/05/09 07:12:59;;;;;;;3.70;1.80;;;;;;;23.38;32.41;100650.31;31359565;28;20057;-71
2022/05/09 07:28:01;;;;;;;6.38;1.98;;;;;;;24.46;31.36;100634.44;31338201;28;20402;-72
2022/05/09 07:43:09;;;;;;;4.00;1.97;;;;;;;25.30;28.80;100626.13;31353441;28;20057;-78
2022/05/09 07:58:12;;;;;;;6.32;2.20;;;;;;;25.83;29.57;100621.47;31343476;28;20060;-75
2022/05/09 08:13:16;;;;;;;4.63;1.88;;;;;;;26.61;28.45;100606.38;31319128;28;20479;-76
2022/05/09 08:28:19;;;;;;;4.18;2.13;;;;;;;26.99;26.54;100593.41;31294551;28;20144;-79
2022/05/09 08:43:40;;;;;;;6.20;2.47;;;;;;;27.53;25.18;100585.00;31319282;28;20059;-78
2022/05/09 08:58:49;;;;;;;4.57;2.45;;;;;;;27.92;24.66;100565.00;31334932;28;20053;-76
2022/05/09 09:14:16;;;;;;;7.97;2.22;;;;;;;28.45;23.61;100540.91;31319372;28;20067;-76
2022/05/09 09:29:25;;;;;;;15.25;5.82;;;;;;;29.01;23.01;100533.63;31323548;28;20479;-78
2022/05/09 09:44:28;;;;;;;6.28;2.65;;;;;;;29.08;23.94;100519.00;31291465;28;20056;-76
2022/05/09 09:59:32;;;;;;;6.53;2.17;;;;;;;28.36;23.95;100512.63;31320864;28;20071;-77
2022/05/09 10:14:36;;;;;;;5.03;3.05;;;;;;;28.17;24.05;100502.22;31365279;28;20048;-77
2022/05/09 10:29:40;;;;;;;8.88;2.70;;;;;;;27.67;25.27;100532.88;31370429;28;20045;-79
2022/05/09 10:44:53;;;;;;;8.20;2.97;;;;;;;23.30;35.80;100544.00;31370218;28;20514;-78
2022/05/09 11:00:07;;;;;;;8.10;3.05;;;;;;;21.56;41.26;100570.50;31200476;28;20056;-80
2022/05/09 11:15:37;;;;;;;3.25;2.25;;;;;;;19.93;51.80;100591.88;31207756;28;20046;-78
2022/05/09 11:30:50;;;;;;;7.85;3.63;;;;;;;19.34;56.35;100568.81;31233395;28;20072;-81
2022/05/09 11:45:58;;;;;;;11.20;4.97;;;;;;;18.52;69.56;100561.59;31210964;28;20521;-80
2022/05/09 12:01:00;;;;;;;9.35;4.38;;;;;;;18.07;74.02;100559.69;31314164;28;20059;-79
2022/05/09 12:16:06;;;;;;;8.90;4.47;;;;;;;17.98;80.00;100576.91;31354436;28;20049;-78
2022/05/09 12:31:26;;;;;;;7.25;3.75;;;;;;;19.95;77.33;100572.88;31313741;28;20559;-78
2022/05/09 12:46:45;;;;;;;4.65;3.50;;;;;;;21.09;58.24;100566.81;31330747;28;20056;-83
2022/05/09 13:01:54;;;;;;;8.45;4.32;;;;;;;20.30;59.72;100580.56;31328903;28;20044;-78
2022/05/09 13:17:43;;;;;;;7.00;2.85;;;;;;;19.94;58.55;100593.38;31353497;28;20102;-82
2022/05/09 13:32:53;;;;;;;5.43;4.10;;;;;;;20.06;60.11;100581.38;31360985;28;20048;-75
2022/05/09 13:48:00;;;;;;;6.47;3.65;;;;;;;20.02;60.97;100566.25;31340197;28;20048;-80
2022/05/09 14:03:58;;;;;;;4.90;2.83;;;;;;;19.71;56.94;100563.88;31381534;28;20052;-78
2022/05/09 14:19:13;;;;;;;3.25;2.08;;;;;;;19.33;54.07;100562.56;31365239;28;20103;-77
2022/05/09 14:34:22;;;;;;;1.65;1.00;;;;;;;19.52;52.75;100546.72;31350273;28;20053;-81
2022/05/09 14:49:25;;;;;;;1.77;1.20;;;;;;;19.18;51.22;100545.19;31337060;28;20533;-77
2022/05/09 15:04:33;;;;;;;2.97;1.77;;;;;;;19.02;55.41;100538.09;31360075;28;20410;-78
2022/05/09 15:19:35;;;;;;;3.58;2.40;;;;;;;18.78;53.39;100544.75;31321105;28;20045;-78
2022/05/09 15:34:37;;;;;;;4.45;1.35;;;;;;;18.80;53.88;100559.56;31334231;28;20045;-77
2022/05/09 15:49:39;;;;;;;3.08;1.77;;;;;;;18.62;54.64;100565.91;31351626;28;20080;-80
2022/05/09 16:04:41;;;;;;;2.55;1.45;;;;;;;18.00;54.94;100582.72;31356031;28;20060;-77
2022/05/09 16:19:50;;;;;;;3.88;1.77;;;;;;;17.53;56.56;100593.31;31384492;28;20048;-75
2022/05/09 16:34:53;;;;;;;2.10;1.35;;;;;;;17.23;56.89;100619.59;31337649;28;20041;-76
2022/05/09 16:49:55;;;;;;;2.03;1.45;;;;;;;16.86;57.83;100629.63;31347158;28;20060;-78
2022/05/09 17:04:57;;;;;;;2.97;1.67;;;;;;;16.59;58.07;100633.69;31321369;28;20494;-76
2022/05/09 17:20:00;;;;;;;4.07;2.23;;;;;;;16.28;58.93;100652.81;31350114;28;20554;-76
2022/05/09 17:37:15;;;;;;;3.03;1.80;;;;;;;16.09;59.48;100655.78;31325751;28;20049;-75
2022/05/09 17:50:29;;;;;;;3.55;1.85;;;;;;;15.94;60.45;100682.88;31342223;28;20057;-79
2022/05/09 18:05:31;;;;;;;2.70;2.03;;;;;;;15.69;61.95;100697.38;31366981;28;20051;-75
2022/05/09 18:20:36;;;;;;;6.00;3.67;;;;;;;15.49;63.88;100702.28;31324517;28;20060;-78
2022/05/09 18:35:41;;;;;;;2.40;1.77;;;;;;;15.35;62.97;100715.16;31347020;28;20128;-75
2022/05/09 19:06:04;;;;;;;2.13;1.63;;;;;;;14.76;65.02;100723.13;31210189;28;19928;-79
2022/05/09 19:21:06;;;;;;;2.93;1.57;;;;;;;14.38;65.37;100720.19;31195966;28;20077;-79
2022/05/09 19:36:08;;;;;;;4.87;2.63;;;;;;;14.20;66.45;100726.06;31196257;28;20065;-80
2022/05/09 19:51:15;;;;;;;5.00;2.67;;;;;;;13.94;68.29;100727.88;31285031;28;20056;-79
2022/05/09 20:06:17;;;;;;;9.10;3.50;;;;;;;13.60;67.58;100741.91;31316180;28;20502;-78
2022/05/09 20:21:24;;;;;;;9.67;3.57;;;;;;;13.35;68.06;100758.78;31273391;28;20059;-77
2022/05/09 20:36:26;;;;;;;5.00;2.53;;;;;;;13.05;67.19;100769.88;31336308;28;20566;-76
2022/05/09 20:51:29;;;;;;;3.27;2.13;;;;;;;12.80;65.43;100778.50;31327644;28;20056;-78
2022/05/09 21:06:35;;;;;;;5.40;1.80;;;;;;;12.58;64.33;100786.28;31346367;28;20045;-77
2022/05/09 21:21:37;;;;;;;2.17;1.57;;;;;;;12.26;64.22;100792.28;31318685;28;20132;-78
2022/05/09 21:36:42;;;;;;;4.63;2.40;;;;;;;12.02;62.71;100788.75;31311836;28;20139;-82
2022/05/09 21:51:46;;;;;;;2.40;1.00;;;;;;;11.74;61.79;100795.31;31320203;28;20076;-77
2022/05/09 22:06:49;;;;;;;1.53;1.10;;;;;;;11.55;60.81;100804.13;31321137;28;20052;-77
2022/05/09 22:21:54;;;;;;;2.83;1.03;;;;;;;11.42;58.97;100811.25;31338999;28;20061;-77
2022/05/09 22:37:00;;;;;;;2.00;1.45;;;;;;;11.26;58.16;100804.47;31293981;28;20052;-77
2022/05/09 22:52:10;;;;;;;3.73;1.50;;;;;;;11.12;56.08;100792.97;31326433;28;20080;-76
2022/05/09 23:07:12;;;;;;;2.97;1.23;;;;;;;11.06;56.90;100795.38;31355081;28;20452;-77
2022/05/09 23:22:14;;;;;;;3.00;1.30;;;;;;;10.83;58.52;100792.50;31343256;28;20052;-77
2022/05/09 23:37:21;;;;;;;1.80;0.90;;;;;;;10.45;58.53;100795.16;31346340;28;20040;-77
2022/05/09 23:52:26;;;;;;;7.20;1.47;;;;;;;10.17;59.01;100800.75;31336902;28;20061;-75
